Terminal Aerodrome Forecast
Issued by NWS

Current Version | Previous Version | Text Only | Print | Product List | Glossary Off
Versions: 1 2 3 4 5 6 7 8 9 10 11 12 13 14 15 16 17 18 19 20 21 22

000
FTUS41 KPBZ 220420 AAA
TAFHLG
TAF AMD
KHLG 220420Z 2204/2224 19007KT P6SM SCT070 OVC090
     FM220500 19006KT P6SM -SHRA OVC025
     FM220900 27007KT P6SM VCSH OVC015
      TEMPO 2209/2212 BKN008
     FM221300 30004KT P6SM BKN015
     FM221700 28008KT P6SM SCT050=

USA.gov is the U.S. government's official web portal to all federal, state and local government web resources and services.